aviador You're here:

SARF Decoded Metar

FORMOSA in ARGENTINA
Report Time2017-08-22 16:00:00
UTC Time2017-08-22 16:40:16
Flight Rules vfr VFR
Wind050° at 20 kt
W.Decomp.*RWY 04: 18.5 kt HW 7.5 kt RCW
W.Rank050° ranks 3
Current wind is above 050° avg. (8.4)
Visibility9999 m
Phenomena:N/A
Clouds:N/A
Expected CloudBase > 5,600 ft AGL from Temp-Dew spread
CeilingNone
Temp25°C (ISA +10)
Dew Point11°C (42% RH)
AAT18.2°C
QNH1016 hPa
Density Alt1,476 ft
Elevation197 ft
Report Wrong Elevation
Raw Report
SARF 221600Z 05020KT CAVOK 25/11 Q1016=

Extra information for SARF:More info

Metar Taf Metar & Taf Last 4 Metars F.Rules Stats Wind Profile Meteogram Temp Stats Airport Information Weather charts Add Link Nearby VenuesMetar ALERT Operation Metar Decoded Social comments